Time;durP1;ratioP1;P1;durP2;ratioP2;P2;SDS_P1;SDS_P2;PMS_P1;PMS_P2;Temp;Humidity;BMP_temperature;BMP_pressure;BME280_temperature;BME280_humidity;BME280_pressure;Samples;Min_cycle;Max_cycle;Signal;HPM_P1;HPM_P2
2021/10/05 00:00:34;;;;;;;9.32;6.50;;;;;;;9.70;74.80;100350.53;8657485;33;20442;-74
2021/10/05 00:05:37;;;;;;;11.73;6.47;;;;;;;9.70;75.02;100345.19;8657814;33;20207;-73
2021/10/05 00:10:40;;;;;;;12.27;6.70;;;;;;;9.72;75.28;100350.44;8658324;33;20145;-74
2021/10/05 00:15:44;;;;;;;10.35;7.22;;;;;;;9.80;74.81;100345.31;8657216;33;20180;-74
2021/10/05 00:20:47;;;;;;;10.73;7.22;;;;;;;9.83;75.03;100336.19;8646196;33;20649;-73
2021/10/05 00:25:50;;;;;;;12.23;6.97;;;;;;;9.86;74.95;100336.81;8656807;33;20220;-74
2021/10/05 00:30:54;;;;;;;12.05;6.65;;;;;;;9.86;74.80;100333.28;8657738;33;20446;-74
2021/10/05 00:35:57;;;;;;;12.48;7.35;;;;;;;9.78;75.05;100328.50;8659971;33;20188;-74
2021/10/05 00:41:00;;;;;;;9.57;6.75;;;;;;;9.83;75.15;100320.94;8684433;33;20156;-73
2021/10/05 00:46:05;;;;;;;13.40;7.47;;;;;;;9.85;75.18;100319.00;8637266;33;20187;-74
2021/10/05 00:51:08;;;;;;;10.90;7.80;;;;;;;9.85;74.99;100319.00;8662454;33;20190;-74
2021/10/05 00:56:11;;;;;;;11.02;7.18;;;;;;;9.80;75.26;100313.13;8636975;33;20183;-74
2021/10/05 01:01:15;;;;;;;11.82;8.25;;;;;;;9.76;75.67;100313.47;8661884;33;20153;-74
2021/10/05 01:06:18;;;;;;;13.73;8.60;;;;;;;9.83;75.36;100296.78;8661030;33;20837;-74
2021/10/05 01:11:23;;;;;;;12.25;7.95;;;;;;;9.84;75.38;100289.59;8683630;33;20149;-74
2021/10/05 01:16:28;;;;;;;13.70;8.52;;;;;;;9.82;75.36;100280.81;8661248;33;20150;-73
2021/10/05 01:21:32;;;;;;;15.52;8.63;;;;;;;9.79;75.33;100281.03;8661017;33;20381;-74
2021/10/05 01:26:35;;;;;;;13.32;8.60;;;;;;;9.76;75.87;100271.41;8660858;33;20156;-73
2021/10/05 01:31:43;;;;;;;15.45;8.95;;;;;;;9.76;75.95;100263.38;8661312;33;20669;-74
2021/10/05 01:36:47;;;;;;;14.25;8.95;;;;;;;9.76;75.92;100239.22;8660533;33;20243;-73
2021/10/05 01:41:52;;;;;;;12.30;8.13;;;;;;;9.73;75.92;100242.16;8636434;33;20312;-73
2021/10/05 01:46:55;;;;;;;12.80;8.45;;;;;;;9.64;76.59;100241.06;8659059;33;20192;-73
2021/10/05 01:52:00;;;;;;;16.88;9.15;;;;;;;9.68;76.59;100236.28;8660570;33;20653;-73
2021/10/05 01:57:03;;;;;;;14.95;8.82;;;;;;;9.68;76.74;100218.41;8659848;33;20192;-73
2021/10/05 02:02:06;;;;;;;16.85;8.65;;;;;;;9.70;76.72;100210.22;8660347;33;20184;-73
2021/10/05 02:07:11;;;;;;;16.80;9.82;;;;;;;9.64;76.83;100210.72;8659846;33;20210;-73
2021/10/05 02:12:15;;;;;;;15.52;8.98;;;;;;;9.60;77.09;100201.19;8659786;33;20145;-73
2021/10/05 02:17:18;;;;;;;18.17;9.57;;;;;;;9.60;77.13;100195.81;8660041;33;20840;-73
2021/10/05 02:22:22;;;;;;;17.05;8.68;;;;;;;9.53;77.34;100190.13;8659682;33;20760;-73
2021/10/05 02:27:25;;;;;;;15.95;9.73;;;;;;;9.54;77.29;100199.84;8659350;33;20184;-73
2021/10/05 02:32:28;;;;;;;16.33;9.23;;;;;;;9.51;77.26;100178.66;8659458;33;20191;-73
2021/10/05 02:37:33;;;;;;;15.88;9.07;;;;;;;9.56;77.30;100173.78;8681732;33;20185;-74
2021/10/05 02:42:36;;;;;;;15.35;8.82;;;;;;;9.58;77.15;100168.31;8659195;33;21658;-73
2021/10/05 02:47:39;;;;;;;15.43;8.70;;;;;;;9.54;76.89;100164.16;8658642;33;20156;-73
2021/10/05 02:52:44;;;;;;;14.93;9.15;;;;;;;9.47;77.41;100151.25;8659138;33;20179;-74
2021/10/05 02:57:47;;;;;;;15.98;8.63;;;;;;;9.50;77.28;100152.81;8658343;33;20188;-73
2021/10/05 03:02:50;;;;;;;15.77;9.20;;;;;;;9.51;77.39;100138.44;8658408;33;20592;-73
2021/10/05 03:07:54;;;;;;;13.95;8.48;;;;;;;9.53;77.31;100132.97;8658427;33;20207;-73
2021/10/05 03:12:57;;;;;;;16.50;8.57;;;;;;;9.53;76.96;100127.59;8658544;33;20468;-73
2021/10/05 03:18:00;;;;;;;15.82;8.18;;;;;;;9.52;77.26;100113.34;8658555;33;20430;-73
2021/10/05 03:23:04;;;;;;;15.60;9.02;;;;;;;9.46;77.73;100103.09;8657735;33;20192;-74
2021/10/05 03:28:07;;;;;;;16.20;9.10;;;;;;;9.48;77.67;100088.59;8658086;33;20512;-73
2021/10/05 03:33:10;;;;;;;18.00;9.70;;;;;;;9.49;77.71;100092.16;8657894;33;20173;-73
2021/10/05 03:38:14;;;;;;;15.73;9.65;;;;;;;9.48;77.64;100080.53;8658529;33;20155;-73
2021/10/05 03:43:18;;;;;;;17.27;9.90;;;;;;;9.51;77.61;100074.94;8657811;33;20176;-73
2021/10/05 03:48:21;;;;;;;18.30;10.00;;;;;;;9.51;77.59;100074.94;8658589;33;20179;-73
2021/10/05 03:53:26;;;;;;;16.30;9.38;;;;;;;9.50;77.62;100075.91;8657446;33;20205;-73
2021/10/05 03:58:29;;;;;;;19.92;10.40;;;;;;;9.55;77.54;100058.63;8657349;33;20238;-73
2021/10/05 04:03:32;;;;;;;19.75;10.45;;;;;;;9.53;77.64;100058.72;8657493;33;20157;-73
2021/10/05 04:08:37;;;;;;;19.98;10.93;;;;;;;9.47;77.88;100046.69;8656858;33;20188;-73
2021/10/05 04:13:40;;;;;;;20.38;11.75;;;;;;;9.52;77.89;100040.94;8657151;33;20780;-73
2021/10/05 04:18:43;;;;;;;18.02;10.60;;;;;;;9.51;77.65;100033.88;8657643;33;20822;-73
2021/10/05 04:23:47;;;;;;;17.40;10.45;;;;;;;9.48;77.86;100021.56;8657300;33;20259;-73
2021/10/05 04:28:50;;;;;;;19.63;10.35;;;;;;;9.44;78.17;100016.59;8656842;33;20133;-73
2021/10/05 04:33:53;;;;;;;21.92;10.98;;;;;;;9.45;78.12;100002.19;8656583;33;20145;-73
2021/10/05 04:38:58;;;;;;;17.40;10.93;;;;;;;9.43;78.18;100009.50;8656788;33;20129;-72
2021/10/05 04:44:01;;;;;;;17.52;10.75;;;;;;;9.36;78.40;99998.44;8656142;33;20239;-73
2021/10/05 04:49:04;;;;;;;22.75;11.82;;;;;;;9.41;78.40;100001.63;8656685;33;20157;-73
2021/10/05 04:54:09;;;;;;;19.00;10.27;;;;;;;9.37;78.42;100008.19;8656171;33;20250;-73
2021/10/05 04:59:12;;;;;;;18.52;10.95;;;;;;;9.44;78.26;100004.03;8656958;33;20184;-73
2021/10/05 05:04:17;;;;;;;18.92;11.02;;;;;;;9.48;78.08;99992.06;8656314;33;20149;-73
2021/10/05 05:09:22;;;;;;;19.08;10.00;;;;;;;9.47;78.19;99994.91;8656288;33;20172;-73
2021/10/05 05:14:25;;;;;;;20.38;11.15;;;;;;;9.46;77.99;99986.00;8631333;33;20185;-74
2021/10/05 05:19:28;;;;;;;21.65;11.80;;;;;;;9.44;78.04;99982.59;8656485;33;20172;-74
2021/10/05 05:24:32;;;;;;;21.42;11.32;;;;;;;9.44;78.08;99976.38;8660075;33;20255;-74
2021/10/05 05:29:35;;;;;;;20.00;11.55;;;;;;;9.35;78.53;99969.97;8660921;33;20557;-74
2021/10/05 05:34:38;;;;;;;23.88;11.30;;;;;;;9.42;78.30;99967.59;8660149;33;20596;-74
2021/10/05 05:39:43;;;;;;;19.55;11.50;;;;;;;9.46;78.47;99952.94;8661010;33;20180;-74
2021/10/05 05:44:46;;;;;;;21.65;11.70;;;;;;;9.50;78.38;99954.41;8660025;33;20211;-74
2021/10/05 05:49:49;;;;;;;21.33;11.48;;;;;;;9.54;78.18;99965.72;8660237;33;20176;-74
2021/10/05 05:54:53;;;;;;;21.67;11.93;;;;;;;9.55;78.15;99957.56;8659898;33;20254;-74
2021/10/05 05:59:58;;;;;;;20.33;10.93;;;;;;;9.57;78.06;99957.44;8660354;33;20195;-74
2021/10/05 06:05:01;;;;;;;21.50;12.07;;;;;;;9.63;78.19;99956.94;8659990;33;20138;-74
2021/10/05 06:10:08;;;;;;;23.08;11.43;;;;;;;9.64;78.08;99945.22;8659362;33;20184;-74
2021/10/05 06:15:13;;;;;;;18.52;10.95;;;;;;;9.69;77.77;99945.69;8659296;33;20321;-73
2021/10/05 06:20:22;;;;;;;21.67;12.18;;;;;;;9.72;77.93;99940.91;8659224;33;20733;-73
2021/10/05 06:25:30;;;;;;;22.10;11.75;;;;;;;9.77;77.88;99934.31;8659523;33;20141;-73
2021/10/05 06:30:33;;;;;;;22.50;11.27;;;;;;;9.86;77.67;99925.50;8658905;33;20156;-73
2021/10/05 06:35:36;;;;;;;22.50;10.98;;;;;;;9.95;77.29;99913.97;8657777;33;20917;-73
2021/10/05 06:40:42;;;;;;;19.92;10.73;;;;;;;10.02;77.17;99903.59;8658669;33;20192;-72
2021/10/05 06:45:45;;;;;;;16.92;9.90;;;;;;;10.07;76.82;99904.88;8659219;33;20221;-72
2021/10/05 06:50:48;;;;;;;17.75;11.05;;;;;;;10.05;76.57;99909.53;8658961;33;20297;-72
2021/10/05 06:55:53;;;;;;;15.20;8.25;;;;;;;10.28;76.25;99909.34;8659625;33;20149;-72
2021/10/05 07:00:55;;;;;;;10.90;7.35;;;;;;;10.52;75.57;99900.97;8660192;33;20638;-72
2021/10/05 07:05:59;;;;;;;15.63;8.90;;;;;;;10.79;75.06;99898.53;8658643;33;20180;-72
2021/10/05 07:11:03;;;;;;;17.73;9.45;;;;;;;10.92;74.20;99892.91;8660242;33;20589;-73
2021/10/05 07:16:06;;;;;;;15.65;9.52;;;;;;;11.07;73.14;99898.72;8659197;33;20191;-72
2021/10/05 07:21:09;;;;;;;14.18;8.05;;;;;;;11.11;73.34;99892.09;8659545;33;21029;-72
2021/10/05 07:26:13;;;;;;;11.82;7.75;;;;;;;11.17;72.80;99890.72;8659348;33;20134;-73
2021/10/05 07:31:17;;;;;;;13.65;9.15;;;;;;;11.19;72.76;99881.50;8659501;33;20183;-73
2021/10/05 07:36:20;;;;;;;13.90;8.15;;;;;;;11.17;72.85;99877.28;8658591;33;20195;-73
2021/10/05 07:41:26;;;;;;;16.65;9.35;;;;;;;11.21;72.62;99878.66;8659151;33;20184;-72
2021/10/05 07:46:29;;;;;;;14.18;8.73;;;;;;;11.33;72.63;99871.34;8660692;33;20188;-73
2021/10/05 07:51:33;;;;;;;14.18;8.63;;;;;;;11.49;72.27;99861.69;8659552;33;20724;-73
2021/10/05 07:56:37;;;;;;;16.75;8.70;;;;;;;11.58;71.90;99854.59;8657721;33;20175;-72
2021/10/05 08:01:40;;;;;;;13.55;7.95;;;;;;;11.70;71.20;99833.75;8648145;33;20188;-72
2021/10/05 08:06:43;;;;;;;11.98;8.00;;;;;;;11.84;71.00;99833.28;8657394;33;21930;-72
2021/10/05 08:11:48;;;;;;;14.10;7.95;;;;;;;12.04;70.28;99825.16;8657863;33;20191;-73
2021/10/05 08:16:51;;;;;;;13.52;8.25;;;;;;;12.14;69.62;99826.81;8656522;33;20238;-72
2021/10/05 08:21:54;;;;;;;14.40;7.45;;;;;;;12.33;69.43;99825.06;8657108;33;20590;-73
2021/10/05 08:26:58;;;;;;;11.38;6.75;;;;;;;12.33;69.18;99817.00;8657193;33;20176;-72
2021/10/05 08:32:01;;;;;;;8.65;5.93;;;;;;;12.26;69.30;99814.03;8656935;33;20204;-72
2021/10/05 08:37:05;;;;;;;9.43;6.63;;;;;;;12.41;68.98;99817.09;8655632;33;20272;-72
2021/10/05 08:42:09;;;;;;;10.55;5.80;;;;;;;12.46;68.45;99812.09;8656218;33;20254;-71
2021/10/05 08:47:12;;;;;;;9.20;5.57;;;;;;;12.78;67.62;99808.94;8657586;33;20431;-72
2021/10/05 08:52:15;;;;;;;8.23;5.53;;;;;;;13.02;67.06;99802.91;8657564;33;20430;-72
2021/10/05 08:57:20;;;;;;;9.05;4.95;;;;;;;13.04;66.52;99790.13;8660548;33;20145;-72
2021/10/05 09:02:23;;;;;;;7.38;5.03;;;;;;;13.69;64.84;99795.22;8662511;33;21914;-72
2021/10/05 09:07:26;;;;;;;5.57;4.43;;;;;;;13.76;63.75;99781.09;8662053;33;20191;-71
2021/10/05 09:12:33;;;;;;;4.45;3.60;;;;;;;14.00;62.60;99781.22;8662744;33;20145;-73
2021/10/05 09:17:37;;;;;;;7.65;4.40;;;;;;;14.21;62.41;99772.72;8660820;33;20199;-72
2021/10/05 09:22:41;;;;;;;4.22;3.38;;;;;;;14.21;61.28;99759.22;8660789;33;20197;-72
2021/10/05 09:27:51;;;;;;;4.43;3.78;;;;;;;13.83;62.91;99750.59;8660531;33;20172;-71
2021/10/05 09:33:00;;;;;;;5.20;3.63;;;;;;;14.00;62.86;99750.69;8660621;33;20167;-72
2021/10/05 09:38:14;;;;;;;5.68;3.42;;;;;;;14.04;62.46;99744.81;8661095;33;20218;-72
2021/10/05 09:43:23;;;;;;;5.07;3.50;;;;;;;14.89;61.34;99727.63;8661064;33;20628;-72
2021/10/05 09:48:25;;;;;;;4.25;3.55;;;;;;;15.11;59.41;99739.63;8661261;33;20991;-72
2021/10/05 09:53:28;;;;;;;3.45;3.15;;;;;;;14.83;60.29;99729.97;8660945;33;20208;-72
2021/10/05 09:58:33;;;;;;;6.80;3.67;;;;;;;14.65;61.29;99721.19;8661092;33;20152;-72
2021/10/05 10:03:38;;;;;;;6.80;3.53;;;;;;;14.30;62.22;99712.28;8660903;33;20207;-72
2021/10/05 10:08:45;;;;;;;4.45;3.50;;;;;;;14.32;62.73;99704.88;8636311;33;20171;-71
2021/10/05 10:13:50;;;;;;;3.65;2.72;;;;;;;14.28;62.58;99703.50;8661129;33;20655;-72
2021/10/05 10:18:58;;;;;;;1.67;1.58;;;;;;;14.57;60.34;99700.38;8660895;33;20434;-71
2021/10/05 10:24:14;;;;;;;2.33;1.30;;;;;;;14.62;59.69;99704.44;8660811;33;20234;-72
2021/10/05 10:29:28;;;;;;;1.83;1.20;;;;;;;14.49;59.43;99688.72;8660781;33;20180;-72
2021/10/05 10:34:31;;;;;;;1.85;1.40;;;;;;;14.68;59.64;99690.28;8659561;33;20184;-71
2021/10/05 10:39:38;;;;;;;1.52;1.42;;;;;;;14.64;57.98;99684.34;8660145;33;20145;-72
2021/10/05 10:44:44;;;;;;;1.55;1.40;;;;;;;14.66;58.63;99679.63;8661184;33;20145;-74
2021/10/05 10:49:56;;;;;;;1.42;1.33;;;;;;;15.38;56.90;99670.78;8660390;33;20262;-71
2021/10/05 10:55:08;;;;;;;1.50;1.38;;;;;;;15.58;55.56;99676.69;8659730;33;20721;-72
2021/10/05 11:00:20;;;;;;;1.40;1.30;;;;;;;15.23;56.73;99666.06;8659803;33;20211;-72
2021/10/05 11:05:25;;;;;;;1.55;1.35;;;;;;;14.80;57.17;99660.00;8659833;33;21301;-72
2021/10/05 11:10:30;;;;;;;1.55;1.45;;;;;;;14.65;58.42;99666.28;8660013;33;20465;-73
2021/10/05 11:15:39;;;;;;;3.55;1.58;;;;;;;14.56;58.67;99654.59;8658866;33;20173;-73
2021/10/05 11:20:50;;;;;;;1.30;1.20;;;;;;;14.63;58.82;99652.94;8659495;33;20192;-73
2021/10/05 11:25:57;;;;;;;2.08;1.35;;;;;;;14.64;59.17;99660.00;8659025;33;22615;-73
2021/10/05 11:31:06;;;;;;;1.77;1.40;;;;;;;14.72;58.62;99640.25;8659122;33;20184;-73
2021/10/05 11:36:14;;;;;;;1.77;1.25;;;;;;;14.68;58.64;99639.75;8658461;33;20727;-73
2021/10/05 11:41:18;;;;;;;1.58;1.42;;;;;;;15.42;57.60;99631.56;8658936;33;20200;-73
2021/10/05 11:46:26;;;;;;;1.70;1.55;;;;;;;16.38;55.05;99618.75;8658138;33;20153;-73
2021/10/05 11:51:29;;;;;;;2.25;1.48;;;;;;;17.35;52.58;99608.00;8658884;33;20195;-73
2021/10/05 11:56:32;;;;;;;1.38;1.27;;;;;;;18.77;50.10;99587.44;8657980;33;20184;-73
2021/10/05 12:01:37;;;;;;;2.95;1.27;;;;;;;20.27;46.25;99580.47;8659020;33;20160;-73
2021/10/05 12:06:42;;;;;;;1.67;1.42;;;;;;;21.33;44.42;99568.69;8658357;33;20184;-73
2021/10/05 12:11:47;;;;;;;2.05;1.30;;;;;;;22.48;40.68;99559.75;8658637;33;21465;-72
2021/10/05 12:17:00;;;;;;;1.63;1.52;;;;;;;21.31;41.41;99550.84;8658226;33;20141;-73
2021/10/05 12:22:07;;;;;;;1.30;1.20;;;;;;;20.78;43.10;99543.59;8658100;33;20183;-73
2021/10/05 12:27:17;;;;;;;1.67;1.58;;;;;;;18.71;47.71;99512.09;8657366;33;20357;-73
2021/10/05 12:32:34;;;;;;;1.20;1.10;;;;;;;19.41;47.68;99504.72;8661395;33;20203;-73
2021/10/05 12:37:37;;;;;;;2.35;1.42;;;;;;;20.51;45.10;99493.66;8662485;33;20175;-73
2021/10/05 12:42:46;;;;;;;1.77;1.67;;;;;;;20.61;44.32;99488.63;8662895;33;20175;-73
2021/10/05 12:47:56;;;;;;;1.50;1.40;;;;;;;20.33;43.57;99476.06;8662183;33;20878;-72
2021/10/05 12:53:05;;;;;;;2.00;1.45;;;;;;;21.38;42.82;99472.47;8662051;33;21334;-74
2021/10/05 12:58:08;;;;;;;2.00;1.25;;;;;;;22.08;41.98;99467.03;8661735;33;20251;-73
2021/10/05 13:03:12;;;;;;;1.45;1.35;;;;;;;20.31;42.96;99459.06;8661874;33;20565;-73
2021/10/05 13:08:16;;;;;;;1.55;1.45;;;;;;;20.38;45.01;99461.78;8662343;33;20181;-73
2021/10/05 13:13:19;;;;;;;1.77;1.60;;;;;;;21.80;41.95;99456.50;8661767;33;20181;-73
2021/10/05 13:18:24;;;;;;;2.13;1.55;;;;;;;23.38;39.30;99447.00;8662008;33;20681;-74
2021/10/05 13:23:26;;;;;;;1.52;1.42;;;;;;;22.36;39.57;99441.16;8661616;33;20188;-73
2021/10/05 13:28:30;;;;;;;1.83;1.73;;;;;;;19.29;46.61;99441.03;8661628;33;20171;-73
2021/10/05 13:33:34;;;;;;;1.67;1.58;;;;;;;20.95;44.58;99427.47;8661180;33;20184;-72
2021/10/05 13:38:37;;;;;;;1.20;1.20;;;;;;;22.83;39.47;99420.47;8661274;33;20712;-72
2021/10/05 13:43:40;;;;;;;2.13;1.55;;;;;;;24.13;37.21;99423.75;8660970;33;20829;-73
2021/10/05 13:48:44;;;;;;;1.73;1.63;;;;;;;24.62;36.21;99424.41;8660848;33;20215;-73
2021/10/05 13:53:47;;;;;;;1.50;1.40;;;;;;;21.78;41.10;99423.09;8660417;33;20190;-73
2021/10/05 13:58:50;;;;;;;1.70;1.60;;;;;;;19.76;45.83;99428.41;8660418;33;21531;-72
2021/10/05 14:03:54;;;;;;;1.60;1.50;;;;;;;20.04;44.82;99425.47;8660591;33;20188;-72
2021/10/05 14:08:57;;;;;;;2.67;1.73;;;;;;;22.44;39.83;99414.34;8661150;33;20161;-73
2021/10/05 14:14:00;;;;;;;1.60;1.50;;;;;;;23.62;37.92;99423.28;8660262;33;20312;-72
2021/10/05 14:19:06;;;;;;;1.58;1.48;;;;;;;24.25;36.18;99421.88;8660195;33;20168;-72
2021/10/05 14:24:09;;;;;;;2.40;1.92;;;;;;;21.26;41.50;99425.06;8660149;33;20251;-72
2021/10/05 14:29:11;;;;;;;1.65;1.48;;;;;;;18.55;47.38;99428.09;8660759;33;20195;-72
2021/10/05 14:34:16;;;;;;;2.20;2.00;;;;;;;17.51;50.53;99420.50;8660134;33;20156;-72
2021/10/05 14:39:19;;;;;;;2.75;2.13;;;;;;;16.95;52.57;99425.63;8660377;33;20191;-72
2021/10/05 14:44:22;;;;;;;1.88;1.77;;;;;;;16.90;52.71;99422.69;8659485;33;20187;-72
2021/10/05 14:49:27;;;;;;;1.90;1.80;;;;;;;16.67;52.66;99415.47;8659623;33;20211;-72
2021/10/05 14:54:50;;;;;;;1.90;1.80;;;;;;;16.69;53.44;99415.28;8659008;33;21762;-72
2021/10/05 14:59:54;;;;;;;2.30;2.10;;;;;;;16.69;53.58;99405.28;8659614;33;20566;-72
2021/10/05 15:04:58;;;;;;;2.47;2.13;;;;;;;16.52;54.04;99399.22;8659271;33;20446;-72
2021/10/05 15:10:02;;;;;;;2.40;2.20;;;;;;;16.97;53.54;99382.91;8659728;33;20235;-72
2021/10/05 15:15:08;;;;;;;2.63;2.13;;;;;;;19.26;48.75;99367.09;8657229;33;20181;-72
2021/10/05 15:20:15;;;;;;;2.60;2.40;;;;;;;19.85;46.80;99355.47;8657628;33;20168;-72
2021/10/05 15:25:18;;;;;;;3.00;2.65;;;;;;;20.13;46.04;99349.78;8657911;33;20931;-72
2021/10/05 15:30:21;;;;;;;4.43;2.53;;;;;;;19.65;46.52;99330.94;8657558;33;20184;-72
2021/10/05 15:35:25;;;;;;;2.42;2.22;;;;;;;19.47;47.59;99323.34;8656833;33;20582;-72
2021/10/05 15:40:28;;;;;;;3.90;2.20;;;;;;;18.58;47.88;99329.78;8656776;33;20177;-72
2021/10/05 15:45:32;;;;;;;2.55;2.35;;;;;;;17.80;49.03;99326.31;8656716;33;20148;-72
2021/10/05 15:50:42;;;;;;;3.22;2.03;;;;;;;16.70;50.75;99331.06;8656977;33;20133;-71
2021/10/05 15:55:47;;;;;;;2.42;2.20;;;;;;;16.25;52.19;99337.50;8656400;33;20417;-72
2021/10/05 16:00:50;;;;;;;2.72;2.15;;;;;;;15.92;52.52;99348.69;8657120;33;20179;-73
2021/10/05 16:05:55;;;;;;;2.63;2.20;;;;;;;15.62;52.79;99345.91;8655971;33;20271;-72
2021/10/05 16:10:58;;;;;;;2.20;2.00;;;;;;;15.36;53.92;99340.88;8658069;33;20827;-73
2021/10/05 16:16:01;;;;;;;2.65;2.38;;;;;;;15.25;54.53;99335.88;8659522;33;20217;-73
2021/10/05 16:21:07;;;;;;;2.63;2.00;;;;;;;15.03;55.12;99332.97;8658401;33;20627;-72
2021/10/05 16:26:10;;;;;;;2.55;2.35;;;;;;;14.95;56.22;99329.47;8655921;33;20267;-71
2021/10/05 16:31:12;;;;;;;3.35;3.05;;;;;;;14.72;57.50;99340.22;8656496;33;20176;-72
2021/10/05 16:36:17;;;;;;;3.33;2.92;;;;;;;14.54;58.38;99335.94;8656154;33;20219;-72
2021/10/05 16:41:20;;;;;;;2.85;2.65;;;;;;;14.47;58.64;99339.50;8631810;33;20176;-72
2021/10/05 16:46:23;;;;;;;4.03;2.80;;;;;;;14.45;59.18;99352.34;8655543;33;20239;-71
2021/10/05 16:51:27;;;;;;;2.97;2.65;;;;;;;14.32;59.58;99358.28;8656063;33;20183;-72
2021/10/05 16:56:30;;;;;;;2.70;2.50;;;;;;;14.32;60.06;99342.91;8655545;33;20610;-72
2021/10/05 17:01:35;;;;;;;6.88;2.78;;;;;;;14.31;59.59;99353.88;8655549;33;20172;-73
2021/10/05 17:06:44;;;;;;;3.60;2.83;;;;;;;14.18;60.57;99365.22;8655373;33;20892;-73
2021/10/05 17:11:46;;;;;;;2.97;2.50;;;;;;;14.05;62.01;99363.06;8656023;33;20196;-72
2021/10/05 17:16:51;;;;;;;3.65;2.72;;;;;;;13.91;63.56;99361.06;8657321;33;20173;-72
2021/10/05 17:21:55;;;;;;;3.88;3.47;;;;;;;13.58;65.39;99362.94;8659969;33;20192;-73
2021/10/05 17:26:58;;;;;;;3.47;3.17;;;;;;;13.49;66.06;99362.06;8659004;33;20240;-73
2021/10/05 17:32:01;;;;;;;3.53;3.08;;;;;;;13.50;66.61;99355.69;8655095;33;20161;-73
2021/10/05 17:37:06;;;;;;;4.03;3.28;;;;;;;13.16;69.37;99369.25;8657429;33;20702;-73
2021/10/05 17:42:09;;;;;;;4.47;3.63;;;;;;;12.87;72.16;99359.75;8657666;33;20639;-73
2021/10/05 17:47:16;;;;;;;4.05;3.60;;;;;;;12.66;72.50;99364.72;8656170;33;21011;-72
2021/10/05 17:52:21;;;;;;;3.92;3.10;;;;;;;12.77;72.24;99367.13;8658583;33;20191;-72
2021/10/05 17:57:24;;;;;;;3.47;3.17;;;;;;;12.69;72.66;99362.56;8653412;33;20240;-72
2021/10/05 18:02:27;;;;;;;4.13;3.70;;;;;;;12.79;73.32;99359.75;8658843;33;20524;-73
2021/10/05 18:07:34;;;;;;;4.13;3.38;;;;;;;12.78;73.21;99366.97;8659110;33;20246;-72
2021/10/05 18:12:42;;;;;;;4.93;3.60;;;;;;;12.63;73.42;99367.75;8658929;33;21401;-73
2021/10/05 18:17:45;;;;;;;3.88;3.38;;;;;;;12.74;73.72;99359.38;8658893;33;21455;-73
2021/10/05 18:22:49;;;;;;;4.55;3.92;;;;;;;12.59;73.75;99365.41;8660926;33;20460;-73
2021/10/05 18:28:09;;;;;;;6.15;4.00;;;;;;;12.73;73.33;99355.00;8663585;33;20217;-73
2021/10/05 18:33:12;;;;;;;6.70;4.13;;;;;;;12.81;72.83;99363.13;8658891;33;20188;-72
2021/10/05 18:38:16;;;;;;;4.40;3.85;;;;;;;12.91;72.42;99365.66;8658445;33;20212;-72
2021/10/05 18:43:19;;;;;;;6.00;3.92;;;;;;;12.84;73.23;99368.19;8658960;33;20609;-73
2021/10/05 18:48:22;;;;;;;7.15;4.97;;;;;;;12.46;75.14;99375.75;8658575;33;20542;-72
2021/10/05 18:53:26;;;;;;;7.30;4.63;;;;;;;12.34;76.78;99371.66;8657910;33;20514;-73
2021/10/05 18:58:35;;;;;;;4.60;3.72;;;;;;;12.28;77.13;99381.22;8658181;33;20621;-72
2021/10/05 19:03:42;;;;;;;5.25;4.10;;;;;;;12.23;77.50;99397.00;8658078;33;20180;-73
2021/10/05 19:08:47;;;;;;;5.30;4.07;;;;;;;12.11;78.26;99415.25;8658153;33;20184;-72
2021/10/05 19:13:50;;;;;;;5.90;4.53;;;;;;;11.97;79.42;99421.19;8657791;33;20907;-72
2021/10/05 19:18:53;;;;;;;6.35;4.93;;;;;;;11.82;80.78;99431.69;8633084;33;20677;-72
2021/10/05 19:23:58;;;;;;;6.82;4.82;;;;;;;11.59;81.72;99431.31;8657213;33;20188;-72
2021/10/05 19:29:01;;;;;;;5.13;4.35;;;;;;;11.40;83.05;99434.97;8657403;33;20145;-73
2021/10/05 19:34:04;;;;;;;5.82;3.58;;;;;;;11.39;82.96;99444.06;8631801;33;20414;-72
2021/10/05 19:39:09;;;;;;;6.40;3.90;;;;;;;11.26;83.50;99440.91;8656994;33;21686;-72
2021/10/05 19:44:12;;;;;;;4.70;3.38;;;;;;;11.18;83.36;99447.03;8656813;33;20145;-72
2021/10/05 19:49:16;;;;;;;5.30;3.22;;;;;;;11.35;83.08;99463.31;8655581;33;20569;-72
2021/10/05 19:54:20;;;;;;;4.95;3.22;;;;;;;11.38;82.35;99463.03;8631029;33;21956;-72
2021/10/05 19:59:24;;;;;;;3.50;2.22;;;;;;;11.22;82.32;99471.78;8656600;33;20141;-73
2021/10/05 20:04:28;;;;;;;3.35;2.67;;;;;;;11.30;81.64;99479.06;8652027;33;20188;-73
2021/10/05 20:09:33;;;;;;;3.63;2.67;;;;;;;11.43;80.37;99487.63;8654543;33;20287;-73
2021/10/05 20:14:38;;;;;;;4.32;2.25;;;;;;;11.39;80.21;99484.41;8655452;33;20210;-73
2021/10/05 20:19:41;;;;;;;4.88;2.38;;;;;;;11.42;80.25;99491.31;8655727;33;20145;-73
2021/10/05 20:24:46;;;;;;;2.30;2.05;;;;;;;11.20;80.43;99493.41;8653639;33;20231;-73
2021/10/05 20:29:50;;;;;;;3.70;2.30;;;;;;;11.38;79.63;99488.09;8654323;33;20230;-73
2021/10/05 20:34:53;;;;;;;4.15;2.80;;;;;;;11.34;79.78;99496.59;8653648;33;20180;-73
2021/10/05 20:39:57;;;;;;;3.38;2.40;;;;;;;11.19;80.19;99501.63;8660848;33;20680;-73
2021/10/05 20:45:00;;;;;;;2.23;2.03;;;;;;;11.26;79.95;99503.56;8664139;33;20549;-73
2021/10/05 20:50:05;;;;;;;2.80;2.38;;;;;;;11.10;79.54;99510.56;8656428;33;20247;-73
2021/10/05 20:55:10;;;;;;;3.58;2.20;;;;;;;11.23;79.43;99508.41;8660796;33;20188;-73
2021/10/05 21:00:14;;;;;;;2.83;2.00;;;;;;;11.06;79.06;99518.09;8661132;33;20198;-73
2021/10/05 21:05:17;;;;;;;2.40;1.70;;;;;;;10.98;78.74;99531.41;8660790;33;20196;-73
2021/10/05 21:10:22;;;;;;;3.60;1.80;;;;;;;10.97;78.73;99525.19;8661407;33;20189;-73
2021/10/05 21:15:25;;;;;;;2.10;1.90;;;;;;;10.94;78.63;99540.75;8659884;33;20215;-73
2021/10/05 21:20:29;;;;;;;4.38;2.13;;;;;;;11.02;78.00;99522.88;8662081;33;20191;-74
2021/10/05 21:25:33;;;;;;;3.90;2.00;;;;;;;10.99;78.05;99541.16;8659847;33;20738;-73
2021/10/05 21:30:37;;;;;;;4.93;2.15;;;;;;;10.78;78.11;99539.53;8659789;33;20769;-74
2021/10/05 21:35:40;;;;;;;3.17;1.85;;;;;;;10.83;77.81;99544.44;8635276;33;20192;-74
2021/10/05 21:40:44;;;;;;;4.47;2.30;;;;;;;10.79;77.30;99546.59;8662092;33;20173;-74
2021/10/05 21:45:48;;;;;;;2.90;2.13;;;;;;;10.89;77.12;99553.75;8661145;33;20307;-74
2021/10/05 21:50:51;;;;;;;2.97;2.10;;;;;;;10.69;77.41;99564.56;8661043;33;20257;-74
2021/10/05 21:55:55;;;;;;;4.38;2.53;;;;;;;10.75;76.99;99564.00;8660346;33;20196;-73
2021/10/05 22:00:58;;;;;;;3.40;2.00;;;;;;;10.76;76.46;99573.75;8660704;33;20156;-74
2021/10/05 22:06:02;;;;;;;4.75;2.15;;;;;;;10.70;76.34;99577.03;8660107;33;20176;-74
2021/10/05 22:11:06;;;;;;;3.22;2.13;;;;;;;10.70;76.09;99589.63;8661742;33;20184;-74
2021/10/05 22:16:09;;;;;;;3.97;2.30;;;;;;;10.65;76.10;99586.50;8660484;33;20596;-74
2021/10/05 22:21:13;;;;;;;3.90;2.83;;;;;;;10.37;76.78;99589.09;8660744;33;20670;-74
2021/10/05 22:26:23;;;;;;;4.53;2.13;;;;;;;10.54;76.36;99603.63;8660946;33;20191;-73
2021/10/05 22:31:26;;;;;;;6.93;2.47;;;;;;;10.37;76.59;99606.03;8661949;33;20698;-73
2021/10/05 22:36:29;;;;;;;3.25;1.88;;;;;;;10.56;75.87;99618.59;8660571;33;20195;-74
2021/10/05 22:41:33;;;;;;;4.20;2.40;;;;;;;10.39;76.44;99614.81;8660201;33;20250;-74
2021/10/05 22:46:37;;;;;;;4.00;2.47;;;;;;;10.36;76.42;99627.66;8635453;33;21061;-74
2021/10/05 22:51:41;;;;;;;3.13;1.90;;;;;;;10.19;77.20;99631.03;8660439;33;20626;-74
2021/10/05 22:56:46;;;;;;;4.82;2.15;;;;;;;10.42;76.35;99648.56;8659460;33;20426;-74
2021/10/05 23:01:49;;;;;;;4.55;2.03;;;;;;;10.39;76.50;99643.47;8659885;33;21032;-73
2021/10/05 23:06:52;;;;;;;2.33;1.90;;;;;;;10.47;76.19;99648.13;8659744;33;20235;-74
2021/10/05 23:11:57;;;;;;;5.20;2.30;;;;;;;10.46;75.95;99649.97;8659759;33;20739;-74
2021/10/05 23:17:00;;;;;;;3.38;2.13;;;;;;;10.45;75.78;99653.66;8658391;33;20619;-73
2021/10/05 23:22:04;;;;;;;6.00;2.20;;;;;;;10.53;75.39;99659.19;8659524;33;20275;-73
2021/10/05 23:27:08;;;;;;;4.85;2.55;;;;;;;10.49;75.71;99667.66;8658892;33;20537;-73
2021/10/05 23:32:11;;;;;;;5.55;2.63;;;;;;;10.44;75.40;99664.53;8659761;33;20650;-74
2021/10/05 23:37:15;;;;;;;3.78;2.25;;;;;;;10.38;75.20;99671.31;8634437;33;20204;-73
2021/10/05 23:42:19;;;;;;;4.15;2.85;;;;;;;10.53;74.79;99679.78;8658646;33;20188;-74